sensor_id;sensor_type;location;lat;lon;timestamp;temperature;humidity
30186;DHT22;31152;49.190;8.122;2023-11-21T00:01:29;8.80;99.90
30186;DHT22;31152;49.190;8.122;2023-11-21T00:03:59;8.80;99.90
30186;DHT22;31152;49.190;8.122;2023-11-21T00:06:28;8.80;99.90
30186;DHT22;31152;49.190;8.122;2023-11-21T00:08:57;8.80;99.90
30186;DHT22;31152;49.190;8.122;2023-11-21T00:11:24;8.80;99.90
30186;DHT22;31152;49.190;8.122;2023-11-21T00:13:51;8.70;99.90
30186;DHT22;31152;49.190;8.122;2023-11-21T00:16:21;8.80;99.90
30186;DHT22;31152;49.190;8.122;2023-11-21T00:18:49;8.70;99.90
30186;DHT22;31152;49.190;8.122;2023-11-21T00:21:15;8.70;99.90
30186;DHT22;31152;49.190;8.122;2023-11-21T00:23:42;8.80;99.90
30186;DHT22;31152;49.190;8.122;2023-11-21T00:26:12;8.70;99.90
30186;DHT22;31152;49.190;8.122;2023-11-21T00:28:39;8.80;99.90
30186;DHT22;31152;49.190;8.122;2023-11-21T00:31:06;8.80;99.90
30186;DHT22;31152;49.190;8.122;2023-11-21T00:33:33;8.80;99.90
30186;DHT22;31152;49.190;8.122;2023-11-21T00:36:00;8.80;99.90
30186;DHT22;31152;49.190;8.122;2023-11-21T00:38:27;8.80;99.90
30186;DHT22;31152;49.190;8.122;2023-11-21T00:40:54;8.80;99.90
30186;DHT22;31152;49.190;8.122;2023-11-21T00:43:23;8.80;99.90
30186;DHT22;31152;49.190;8.122;2023-11-21T00:45:52;8.80;99.90
30186;DHT22;31152;49.190;8.122;2023-11-21T00:48:23;8.80;99.90
30186;DHT22;31152;49.190;8.122;2023-11-21T00:50:50;8.80;99.90
30186;DHT22;31152;49.190;8.122;2023-11-21T00:53:16;8.80;99.90
30186;DHT22;31152;49.190;8.122;2023-11-21T00:55:43;8.90;99.90
30186;DHT22;31152;49.190;8.122;2023-11-21T00:58:11;8.90;99.90
30186;DHT22;31152;49.190;8.122;2023-11-21T01:00:38;8.90;99.90
30186;DHT22;31152;49.190;8.122;2023-11-21T01:03:06;8.90;99.90
30186;DHT22;31152;49.190;8.122;2023-11-21T01:05:34;8.90;99.90
30186;DHT22;31152;49.190;8.122;2023-11-21T01:08:01;8.90;99.90
30186;DHT22;31152;49.190;8.122;2023-11-21T01:10:30;8.90;99.90
30186;DHT22;31152;49.190;8.122;2023-11-21T01:12:59;8.90;99.90
30186;DHT22;31152;49.190;8.122;2023-11-21T01:15:33;8.90;99.90
30186;DHT22;31152;49.190;8.122;2023-11-21T01:18:05;8.90;99.90
30186;DHT22;31152;49.190;8.122;2023-11-21T01:20:32;8.80;99.90
30186;DHT22;31152;49.190;8.122;2023-11-21T01:22:59;8.80;99.90
30186;DHT22;31152;49.190;8.122;2023-11-21T01:25:26;8.80;99.90
30186;DHT22;31152;49.190;8.122;2023-11-21T01:27:55;8.80;99.90
30186;DHT22;31152;49.190;8.122;2023-11-21T01:30:22;8.90;99.90
30186;DHT22;31152;49.190;8.122;2023-11-21T01:32:52;8.80;99.90
30186;DHT22;31152;49.190;8.122;2023-11-21T01:35:18;8.90;99.90
30186;DHT22;31152;49.190;8.122;2023-11-21T01:37:45;8.90;99.90
30186;DHT22;31152;49.190;8.122;2023-11-21T01:40:14;8.90;99.90
30186;DHT22;31152;49.190;8.122;2023-11-21T01:42:42;8.90;99.90
30186;DHT22;31152;49.190;8.122;2023-11-21T01:45:13;8.90;99.90
30186;DHT22;31152;49.190;8.122;2023-11-21T01:47:41;8.90;99.90
30186;DHT22;31152;49.190;8.122;2023-11-21T01:50:13;8.90;99.90
30186;DHT22;31152;49.190;8.122;2023-11-21T01:52:42;8.90;99.90
30186;DHT22;31152;49.190;8.122;2023-11-21T01:55:10;8.80;99.90
30186;DHT22;31152;49.190;8.122;2023-11-21T01:57:45;8.90;99.90
30186;DHT22;31152;49.190;8.122;2023-11-21T02:00:13;8.80;99.90
30186;DHT22;31152;49.190;8.122;2023-11-21T02:02:43;8.80;99.90
30186;DHT22;31152;49.190;8.122;2023-11-21T02:05:14;8.80;99.90
30186;DHT22;31152;49.190;8.122;2023-11-21T02:07:44;8.80;99.90
30186;DHT22;31152;49.190;8.122;2023-11-21T02:10:15;8.80;99.90
30186;DHT22;31152;49.190;8.122;2023-11-21T02:12:43;8.80;99.90
30186;DHT22;31152;49.190;8.122;2023-11-21T02:15:15;8.80;99.90
30186;DHT22;31152;49.190;8.122;2023-11-21T02:17:47;8.80;99.90
30186;DHT22;31152;49.190;8.122;2023-11-21T02:20:22;8.80;99.90
30186;DHT22;31152;49.190;8.122;2023-11-21T02:22:56;8.80;99.90
30186;DHT22;31152;49.190;8.122;2023-11-21T02:25:33;8.80;99.90
30186;DHT22;31152;49.190;8.122;2023-11-21T02:28:02;8.80;99.90
30186;DHT22;31152;49.190;8.122;2023-11-21T02:30:29;8.90;99.90
30186;DHT22;31152;49.190;8.122;2023-11-21T02:33:00;8.90;99.90
30186;DHT22;31152;49.190;8.122;2023-11-21T02:35:28;8.80;99.90
30186;DHT22;31152;49.190;8.122;2023-11-21T02:37:55;8.80;99.90
30186;DHT22;31152;49.190;8.122;2023-11-21T02:40:22;8.90;99.90
30186;DHT22;31152;49.190;8.122;2023-11-21T02:42:51;8.90;99.90
30186;DHT22;31152;49.190;8.122;2023-11-21T02:45:20;8.90;99.90
30186;DHT22;31152;49.190;8.122;2023-11-21T02:47:51;8.90;99.90
30186;DHT22;31152;49.190;8.122;2023-11-21T02:50:24;8.90;99.90
30186;DHT22;31152;49.190;8.122;2023-11-21T02:52:50;8.90;99.90
30186;DHT22;31152;49.190;8.122;2023-11-21T02:55:20;8.80;99.90
30186;DHT22;31152;49.190;8.122;2023-11-21T02:57:49;8.80;99.90
30186;DHT22;31152;49.190;8.122;2023-11-21T03:00:16;8.80;99.90
30186;DHT22;31152;49.190;8.122;2023-11-21T03:02:43;8.90;99.90
30186;DHT22;31152;49.190;8.122;2023-11-21T03:05:10;8.80;99.90
30186;DHT22;31152;49.190;8.122;2023-11-21T03:07:37;8.80;99.90
30186;DHT22;31152;49.190;8.122;2023-11-21T03:10:06;8.80;99.90
30186;DHT22;31152;49.190;8.122;2023-11-21T03:12:33;8.80;99.90
30186;DHT22;31152;49.190;8.122;2023-11-21T03:15:00;8.80;99.90
30186;DHT22;31152;49.190;8.122;2023-11-21T03:17:28;8.80;99.90
30186;DHT22;31152;49.190;8.122;2023-11-21T03:20:00;8.90;99.90
30186;DHT22;31152;49.190;8.122;2023-11-21T03:22:26;8.80;99.90
30186;DHT22;31152;49.190;8.122;2023-11-21T03:24:53;8.80;99.90
30186;DHT22;31152;49.190;8.122;2023-11-21T03:27:20;8.80;99.90
30186;DHT22;31152;49.190;8.122;2023-11-21T03:29:48;8.80;99.90
30186;DHT22;31152;49.190;8.122;2023-11-21T03:32:15;8.70;99.90
30186;DHT22;31152;49.190;8.122;2023-11-21T03:35:00;8.80;99.90
30186;DHT22;31152;49.190;8.122;2023-11-21T03:37:28;8.80;99.90
30186;DHT22;31152;49.190;8.122;2023-11-21T03:39:56;8.80;99.90
30186;DHT22;31152;49.190;8.122;2023-11-21T03:42:24;8.80;99.90
30186;DHT22;31152;49.190;8.122;2023-11-21T03:44:53;8.80;99.90
30186;DHT22;31152;49.190;8.122;2023-11-21T03:47:20;8.70;99.90
30186;DHT22;31152;49.190;8.122;2023-11-21T03:49:47;8.70;99.90
30186;DHT22;31152;49.190;8.122;2023-11-21T03:52:16;8.70;99.90
30186;DHT22;31152;49.190;8.122;2023-11-21T03:54:43;8.70;99.90
30186;DHT22;31152;49.190;8.122;2023-11-21T03:57:11;8.70;99.90
30186;DHT22;31152;49.190;8.122;2023-11-21T03:59:41;8.70;99.90
30186;DHT22;31152;49.190;8.122;2023-11-21T04:02:09;8.80;99.90
30186;DHT22;31152;49.190;8.122;2023-11-21T04:04:36;8.70;99.90
30186;DHT22;31152;49.190;8.122;2023-11-21T04:07:03;8.70;99.90
30186;DHT22;31152;49.190;8.122;2023-11-21T04:09:31;8.70;99.90
30186;DHT22;31152;49.190;8.122;2023-11-21T04:11:57;8.70;99.90
30186;DHT22;31152;49.190;8.122;2023-11-21T04:14:24;8.70;99.90
30186;DHT22;31152;49.190;8.122;2023-11-21T04:16:51;8.70;99.90
30186;DHT22;31152;49.190;8.122;2023-11-21T04:19:17;8.80;99.90
30186;DHT22;31152;49.190;8.122;2023-11-21T04:21:47;8.80;99.90
30186;DHT22;31152;49.190;8.122;2023-11-21T04:24:14;8.80;99.90
30186;DHT22;31152;49.190;8.122;2023-11-21T04:26:41;8.90;99.90
30186;DHT22;31152;49.190;8.122;2023-11-21T04:29:07;8.90;99.90
30186;DHT22;31152;49.190;8.122;2023-11-21T04:31:34;8.90;99.90
30186;DHT22;31152;49.190;8.122;2023-11-21T04:34:01;8.80;99.90
30186;DHT22;31152;49.190;8.122;2023-11-21T04:36:27;8.90;99.90
30186;DHT22;31152;49.190;8.122;2023-11-21T04:38:54;8.90;99.90
30186;DHT22;31152;49.190;8.122;2023-11-21T04:41:21;8.90;99.90
30186;DHT22;31152;49.190;8.122;2023-11-21T04:43:50;8.90;99.90
30186;DHT22;31152;49.190;8.122;2023-11-21T04:46:17;8.90;99.90
30186;DHT22;31152;49.190;8.122;2023-11-21T04:48:44;8.90;99.90
30186;DHT22;31152;49.190;8.122;2023-11-21T04:51:11;8.90;99.90
30186;DHT22;31152;49.190;8.122;2023-11-21T04:53:39;8.90;99.90
30186;DHT22;31152;49.190;8.122;2023-11-21T04:56:06;8.90;99.90
30186;DHT22;31152;49.190;8.122;2023-11-21T04:58:35;8.90;99.90
30186;DHT22;31152;49.190;8.122;2023-11-21T05:01:02;8.90;99.90
30186;DHT22;31152;49.190;8.122;2023-11-21T05:03:34;8.90;99.90
30186;DHT22;31152;49.190;8.122;2023-11-21T05:06:01;8.90;99.90
30186;DHT22;31152;49.190;8.122;2023-11-21T05:08:28;8.90;99.90
30186;DHT22;31152;49.190;8.122;2023-11-21T05:10:54;8.80;99.90
30186;DHT22;31152;49.190;8.122;2023-11-21T05:13:21;8.80;99.90
30186;DHT22;31152;49.190;8.122;2023-11-21T05:15:55;8.90;99.90
30186;DHT22;31152;49.190;8.122;2023-11-21T05:18:25;8.80;99.90
30186;DHT22;31152;49.190;8.122;2023-11-21T05:20:58;8.80;99.90
30186;DHT22;31152;49.190;8.122;2023-11-21T05:23:27;8.90;99.90
30186;DHT22;31152;49.190;8.122;2023-11-21T05:25:54;8.80;99.90
30186;DHT22;31152;49.190;8.122;2023-11-21T05:28:23;8.80;99.90
30186;DHT22;31152;49.190;8.122;2023-11-21T05:30:49;8.80;99.90
30186;DHT22;31152;49.190;8.122;2023-11-21T05:33:28;8.80;99.90
30186;DHT22;31152;49.190;8.122;2023-11-21T05:35:55;8.80;99.90
30186;DHT22;31152;49.190;8.122;2023-11-21T05:38:24;8.80;99.90
30186;DHT22;31152;49.190;8.122;2023-11-21T05:40:51;8.80;99.90
30186;DHT22;31152;49.190;8.122;2023-11-21T05:43:17;8.80;99.90
30186;DHT22;31152;49.190;8.122;2023-11-21T05:45:44;8.80;99.90
30186;DHT22;31152;49.190;8.122;2023-11-21T05:48:11;8.80;99.90
30186;DHT22;31152;49.190;8.122;2023-11-21T05:50:39;8.80;99.90
30186;DHT22;31152;49.190;8.122;2023-11-21T05:53:08;8.80;99.90
30186;DHT22;31152;49.190;8.122;2023-11-21T05:55:39;8.80;99.90
30186;DHT22;31152;49.190;8.122;2023-11-21T05:58:08;8.80;99.90
30186;DHT22;31152;49.190;8.122;2023-11-21T06:00:36;8.80;99.90
30186;DHT22;31152;49.190;8.122;2023-11-21T06:03:03;8.90;99.90
30186;DHT22;31152;49.190;8.122;2023-11-21T06:05:33;8.90;99.90
30186;DHT22;31152;49.190;8.122;2023-11-21T06:08:00;8.90;99.90
30186;DHT22;31152;49.190;8.122;2023-11-21T06:10:27;8.90;99.90
30186;DHT22;31152;49.190;8.122;2023-11-21T06:12:55;8.90;99.90
30186;DHT22;31152;49.190;8.122;2023-11-21T06:15:22;8.90;99.90
30186;DHT22;31152;49.190;8.122;2023-11-21T06:17:50;8.90;99.90
30186;DHT22;31152;49.190;8.122;2023-11-21T06:20:20;8.90;99.90
30186;DHT22;31152;49.190;8.122;2023-11-21T06:22:49;8.90;99.90
30186;DHT22;31152;49.190;8.122;2023-11-21T06:25:19;9.00;99.90
30186;DHT22;31152;49.190;8.122;2023-11-21T06:27:47;9.00;99.90
30186;DHT22;31152;49.190;8.122;2023-11-21T06:30:15;9.00;99.90
30186;DHT22;31152;49.190;8.122;2023-11-21T06:32:42;9.00;99.90
30186;DHT22;31152;49.190;8.122;2023-11-21T06:35:19;9.00;99.90
30186;DHT22;31152;49.190;8.122;2023-11-21T06:37:45;9.00;99.90
30186;DHT22;31152;49.190;8.122;2023-11-21T06:40:14;9.00;99.90
30186;DHT22;31152;49.190;8.122;2023-11-21T06:42:47;9.10;99.90
30186;DHT22;31152;49.190;8.122;2023-11-21T06:45:15;9.10;99.90
30186;DHT22;31152;49.190;8.122;2023-11-21T06:47:42;9.10;99.90
30186;DHT22;31152;49.190;8.122;2023-11-21T06:50:09;9.10;99.90
30186;DHT22;31152;49.190;8.122;2023-11-21T06:52:36;9.20;99.90
30186;DHT22;31152;49.190;8.122;2023-11-21T06:55:14;9.20;99.90
30186;DHT22;31152;49.190;8.122;2023-11-21T06:57:43;9.20;99.90
30186;DHT22;31152;49.190;8.122;2023-11-21T07:00:11;9.30;99.90
30186;DHT22;31152;49.190;8.122;2023-11-21T07:02:38;9.30;99.90
30186;DHT22;31152;49.190;8.122;2023-11-21T07:05:06;9.30;99.90
30186;DHT22;31152;49.190;8.122;2023-11-21T07:07:35;9.30;99.90
30186;DHT22;31152;49.190;8.122;2023-11-21T07:10:05;9.30;99.90
30186;DHT22;31152;49.190;8.122;2023-11-21T07:12:32;9.30;99.90
30186;DHT22;31152;49.190;8.122;2023-11-21T07:15:02;9.40;99.90
30186;DHT22;31152;49.190;8.122;2023-11-21T07:17:29;9.40;99.90
30186;DHT22;31152;49.190;8.122;2023-11-21T07:19:58;9.40;99.90
30186;DHT22;31152;49.190;8.122;2023-11-21T07:22:25;9.40;99.90
30186;DHT22;31152;49.190;8.122;2023-11-21T07:24:53;9.50;99.90
30186;DHT22;31152;49.190;8.122;2023-11-21T07:27:23;9.50;99.90
30186;DHT22;31152;49.190;8.122;2023-11-21T07:29:54;9.60;99.90
30186;DHT22;31152;49.190;8.122;2023-11-21T07:32:21;9.60;99.90
30186;DHT22;31152;49.190;8.122;2023-11-21T07:34:48;9.60;99.90
30186;DHT22;31152;49.190;8.122;2023-11-21T07:37:14;9.70;99.90
30186;DHT22;31152;49.190;8.122;2023-11-21T07:39:41;9.70;99.90
30186;DHT22;31152;49.190;8.122;2023-11-21T07:42:11;9.70;99.90
30186;DHT22;31152;49.190;8.122;2023-11-21T07:44:38;9.70;99.90
30186;DHT22;31152;49.190;8.122;2023-11-21T07:47:05;9.80;99.90
30186;DHT22;31152;49.190;8.122;2023-11-21T07:49:32;9.80;99.90
30186;DHT22;31152;49.190;8.122;2023-11-21T07:52:01;9.80;99.90
30186;DHT22;31152;49.190;8.122;2023-11-21T07:54:28;9.90;99.90
30186;DHT22;31152;49.190;8.122;2023-11-21T07:56:55;9.90;99.90
30186;DHT22;31152;49.190;8.122;2023-11-21T07:59:21;9.90;99.90
30186;DHT22;31152;49.190;8.122;2023-11-21T08:01:48;9.90;99.90
30186;DHT22;31152;49.190;8.122;2023-11-21T08:04:17;10.00;99.90
30186;DHT22;31152;49.190;8.122;2023-11-21T08:06:46;10.00;99.90
30186;DHT22;31152;49.190;8.122;2023-11-21T08:09:14;10.10;99.90
30186;DHT22;31152;49.190;8.122;2023-11-21T08:11:44;10.10;99.90
30186;DHT22;31152;49.190;8.122;2023-11-21T08:14:11;10.10;99.90
30186;DHT22;31152;49.190;8.122;2023-11-21T08:16:38;10.10;99.90
30186;DHT22;31152;49.190;8.122;2023-11-21T08:19:05;10.10;99.90
30186;DHT22;31152;49.190;8.122;2023-11-21T08:21:32;10.10;99.90
30186;DHT22;31152;49.190;8.122;2023-11-21T08:23:59;10.10;99.90
30186;DHT22;31152;49.190;8.122;2023-11-21T08:26:26;10.20;99.90
30186;DHT22;31152;49.190;8.122;2023-11-21T08:28:54;10.10;99.90
30186;DHT22;31152;49.190;8.122;2023-11-21T08:31:26;10.20;99.90
30186;DHT22;31152;49.190;8.122;2023-11-21T08:33:53;10.20;99.90
30186;DHT22;31152;49.190;8.122;2023-11-21T08:36:23;10.20;99.90
30186;DHT22;31152;49.190;8.122;2023-11-21T08:38:51;10.20;99.90
30186;DHT22;31152;49.190;8.122;2023-11-21T08:41:18;10.20;99.90
30186;DHT22;31152;49.190;8.122;2023-11-21T08:43:49;10.20;99.90
30186;DHT22;31152;49.190;8.122;2023-11-21T08:46:20;10.30;99.90
30186;DHT22;31152;49.190;8.122;2023-11-21T08:48:47;10.30;99.90
30186;DHT22;31152;49.190;8.122;2023-11-21T08:51:14;10.30;99.90
30186;DHT22;31152;49.190;8.122;2023-11-21T08:53:43;10.40;99.90
30186;DHT22;31152;49.190;8.122;2023-11-21T08:56:15;10.40;99.90
30186;DHT22;31152;49.190;8.122;2023-11-21T08:58:42;10.50;99.90
30186;DHT22;31152;49.190;8.122;2023-11-21T09:01:09;10.50;99.90
30186;DHT22;31152;49.190;8.122;2023-11-21T09:03:36;10.50;99.90
30186;DHT22;31152;49.190;8.122;2023-11-21T09:06:08;10.60;99.90
30186;DHT22;31152;49.190;8.122;2023-11-21T09:08:38;10.60;99.90
30186;DHT22;31152;49.190;8.122;2023-11-21T09:11:05;10.70;99.90
30186;DHT22;31152;49.190;8.122;2023-11-21T09:13:34;10.80;99.90
30186;DHT22;31152;49.190;8.122;2023-11-21T09:16:01;10.90;99.90
30186;DHT22;31152;49.190;8.122;2023-11-21T09:18:31;11.00;99.90
30186;DHT22;31152;49.190;8.122;2023-11-21T09:21:00;11.10;99.90
30186;DHT22;31152;49.190;8.122;2023-11-21T09:23:27;11.20;99.90
30186;DHT22;31152;49.190;8.122;2023-11-21T09:25:54;11.20;99.90
30186;DHT22;31152;49.190;8.122;2023-11-21T09:28:26;11.20;99.90
30186;DHT22;31152;49.190;8.122;2023-11-21T09:30:54;11.20;99.90
30186;DHT22;31152;49.190;8.122;2023-11-21T09:33:23;11.30;99.90
30186;DHT22;31152;49.190;8.122;2023-11-21T09:35:56;11.30;99.90
30186;DHT22;31152;49.190;8.122;2023-11-21T09:38:24;11.30;99.90
30186;DHT22;31152;49.190;8.122;2023-11-21T09:40:51;11.40;99.90
30186;DHT22;31152;49.190;8.122;2023-11-21T09:43:20;11.50;99.90
30186;DHT22;31152;49.190;8.122;2023-11-21T09:45:59;11.50;99.90
30186;DHT22;31152;49.190;8.122;2023-11-21T09:48:26;11.50;99.90
30186;DHT22;31152;49.190;8.122;2023-11-21T09:50:54;11.50;99.90
30186;DHT22;31152;49.190;8.122;2023-11-21T09:53:28;11.50;99.90
30186;DHT22;31152;49.190;8.122;2023-11-21T09:56:00;11.40;99.90
30186;DHT22;31152;49.190;8.122;2023-11-21T09:58:31;11.40;99.90
30186;DHT22;31152;49.190;8.122;2023-11-21T10:01:01;11.40;99.90
30186;DHT22;31152;49.190;8.122;2023-11-21T10:03:29;11.40;99.90
30186;DHT22;31152;49.190;8.122;2023-11-21T10:06:01;11.40;99.90
30186;DHT22;31152;49.190;8.122;2023-11-21T10:08:32;11.40;99.90
30186;DHT22;31152;49.190;8.122;2023-11-21T10:11:17;11.50;99.90
30186;DHT22;31152;49.190;8.122;2023-11-21T10:13:46;11.40;99.90
30186;DHT22;31152;49.190;8.122;2023-11-21T10:16:18;11.40;99.90
30186;DHT22;31152;49.190;8.122;2023-11-21T10:18:51;11.40;99.90
30186;DHT22;31152;49.190;8.122;2023-11-21T10:21:19;11.40;99.90
30186;DHT22;31152;49.190;8.122;2023-11-21T10:23:47;11.30;99.90
30186;DHT22;31152;49.190;8.122;2023-11-21T10:26:14;11.30;99.90
30186;DHT22;31152;49.190;8.122;2023-11-21T10:29:00;11.20;99.90
30186;DHT22;31152;49.190;8.122;2023-11-21T10:31:27;11.20;99.90
30186;DHT22;31152;49.190;8.122;2023-11-21T10:34:10;11.10;99.90
30186;DHT22;31152;49.190;8.122;2023-11-21T10:36:37;11.10;99.90
30186;DHT22;31152;49.190;8.122;2023-11-21T10:39:04;11.10;99.90
30186;DHT22;31152;49.190;8.122;2023-11-21T10:41:33;11.00;99.90
30186;DHT22;31152;49.190;8.122;2023-11-21T10:44:02;11.00;99.90
30186;DHT22;31152;49.190;8.122;2023-11-21T10:46:33;11.00;99.90
30186;DHT22;31152;49.190;8.122;2023-11-21T10:49:01;11.00;99.90
30186;DHT22;31152;49.190;8.122;2023-11-21T10:51:30;11.10;99.90
30186;DHT22;31152;49.190;8.122;2023-11-21T10:53:57;11.00;99.90
30186;DHT22;31152;49.190;8.122;2023-11-21T10:56:27;11.00;99.90
30186;DHT22;31152;49.190;8.122;2023-11-21T10:58:57;11.00;99.90
30186;DHT22;31152;49.190;8.122;2023-11-21T11:01:29;11.00;99.90
30186;DHT22;31152;49.190;8.122;2023-11-21T11:03:57;11.10;99.90
30186;DHT22;31152;49.190;8.122;2023-11-21T11:06:26;11.00;99.90
30186;DHT22;31152;49.190;8.122;2023-11-21T11:08:57;11.00;99.90
30186;DHT22;31152;49.190;8.122;2023-11-21T11:11:25;11.00;99.90
30186;DHT22;31152;49.190;8.122;2023-11-21T11:13:52;11.00;99.90
30186;DHT22;31152;49.190;8.122;2023-11-21T11:16:20;11.00;99.90
30186;DHT22;31152;49.190;8.122;2023-11-21T11:18:49;11.00;99.90
30186;DHT22;31152;49.190;8.122;2023-11-21T11:24:36;11.00;99.90
30186;DHT22;31152;49.190;8.122;2023-11-21T11:27:28;11.00;99.90
30186;DHT22;31152;49.190;8.122;2023-11-21T11:30:16;11.00;99.90
30186;DHT22;31152;49.190;8.122;2023-11-21T11:38:23;11.20;99.90
30186;DHT22;31152;49.190;8.122;2023-11-21T11:40:53;11.20;99.90
30186;DHT22;31152;49.190;8.122;2023-11-21T11:43:25;11.20;99.90
30186;DHT22;31152;49.190;8.122;2023-11-21T11:45:55;11.10;99.90
30186;DHT22;31152;49.190;8.122;2023-11-21T11:48:22;11.20;99.90
30186;DHT22;31152;49.190;8.122;2023-11-21T11:51:04;11.20;99.90
30186;DHT22;31152;49.190;8.122;2023-11-21T11:53:39;11.20;99.90
30186;DHT22;31152;49.190;8.122;2023-11-21T11:58:56;11.10;99.90
30186;DHT22;31152;49.190;8.122;2023-11-21T12:01:27;11.00;99.90
30186;DHT22;31152;49.190;8.122;2023-11-21T12:06:47;11.00;99.90
30186;DHT22;31152;49.190;8.122;2023-11-21T12:09:23;10.90;99.90
30186;DHT22;31152;49.190;8.122;2023-11-21T12:11:52;10.90;99.90
30186;DHT22;31152;49.190;8.122;2023-11-21T12:14:18;10.90;99.90
30186;DHT22;31152;49.190;8.122;2023-11-21T12:16:45;10.90;99.90
30186;DHT22;31152;49.190;8.122;2023-11-21T12:19:13;11.00;99.90
30186;DHT22;31152;49.190;8.122;2023-11-21T12:21:40;10.90;99.90
30186;DHT22;31152;49.190;8.122;2023-11-21T12:24:11;10.90;99.90
30186;DHT22;31152;49.190;8.122;2023-11-21T12:26:42;11.00;99.90
30186;DHT22;31152;49.190;8.122;2023-11-21T12:29:09;11.00;99.90
30186;DHT22;31152;49.190;8.122;2023-11-21T12:31:37;11.10;99.90
30186;DHT22;31152;49.190;8.122;2023-11-21T12:34:05;11.10;99.90
30186;DHT22;31152;49.190;8.122;2023-11-21T12:36:34;11.20;99.90
30186;DHT22;31152;49.190;8.122;2023-11-21T12:39:02;11.20;99.90
30186;DHT22;31152;49.190;8.122;2023-11-21T12:41:30;11.30;99.90
30186;DHT22;31152;49.190;8.122;2023-11-21T12:43:57;11.50;99.90
30186;DHT22;31152;49.190;8.122;2023-11-21T12:46:25;11.60;99.90
30186;DHT22;31152;49.190;8.122;2023-11-21T12:48:56;11.70;99.90
30186;DHT22;31152;49.190;8.122;2023-11-21T12:51:25;11.80;99.90
30186;DHT22;31152;49.190;8.122;2023-11-21T12:53:52;11.90;99.90
30186;DHT22;31152;49.190;8.122;2023-11-21T12:56:21;12.00;99.90
30186;DHT22;31152;49.190;8.122;2023-11-21T12:58:50;12.10;99.90
30186;DHT22;31152;49.190;8.122;2023-11-21T13:01:19;12.20;99.90
30186;DHT22;31152;49.190;8.122;2023-11-21T13:03:50;12.30;99.90
30186;DHT22;31152;49.190;8.122;2023-11-21T13:06:18;12.50;99.90
30186;DHT22;31152;49.190;8.122;2023-11-21T13:08:46;12.70;99.90
30186;DHT22;31152;49.190;8.122;2023-11-21T13:11:14;12.80;99.90
30186;DHT22;31152;49.190;8.122;2023-11-21T13:13:44;13.00;99.90
30186;DHT22;31152;49.190;8.122;2023-11-21T13:16:13;13.20;99.90
30186;DHT22;31152;49.190;8.122;2023-11-21T13:18:42;13.30;99.90
30186;DHT22;31152;49.190;8.122;2023-11-21T13:21:10;13.40;99.90
30186;DHT22;31152;49.190;8.122;2023-11-21T13:23:41;13.40;99.90
30186;DHT22;31152;49.190;8.122;2023-11-21T13:26:12;13.20;99.90
30186;DHT22;31152;49.190;8.122;2023-11-21T13:28:41;13.20;99.90
30186;DHT22;31152;49.190;8.122;2023-11-21T13:31:13;13.10;99.90
30186;DHT22;31152;49.190;8.122;2023-11-21T13:33:58;13.00;99.90
30186;DHT22;31152;49.190;8.122;2023-11-21T13:36:32;12.90;99.90
30186;DHT22;31152;49.190;8.122;2023-11-21T13:39:03;12.90;99.90
30186;DHT22;31152;49.190;8.122;2023-11-21T13:41:42;12.80;99.90
30186;DHT22;31152;49.190;8.122;2023-11-21T13:44:10;12.70;99.90
30186;DHT22;31152;49.190;8.122;2023-11-21T13:46:54;12.60;99.90
30186;DHT22;31152;49.190;8.122;2023-11-21T13:49:23;12.60;99.90
30186;DHT22;31152;49.190;8.122;2023-11-21T13:51:52;12.50;99.90
30186;DHT22;31152;49.190;8.122;2023-11-21T13:54:21;12.50;99.90
30186;DHT22;31152;49.190;8.122;2023-11-21T13:56:51;12.50;99.90
30186;DHT22;31152;49.190;8.122;2023-11-21T13:59:20;12.50;99.90
30186;DHT22;31152;49.190;8.122;2023-11-21T14:01:52;12.60;99.90
30186;DHT22;31152;49.190;8.122;2023-11-21T14:04:24;12.60;99.90
30186;DHT22;31152;49.190;8.122;2023-11-21T14:06:57;12.60;99.90
30186;DHT22;31152;49.190;8.122;2023-11-21T14:09:27;12.70;99.90
30186;DHT22;31152;49.190;8.122;2023-11-21T14:12:02;12.70;99.90
30186;DHT22;31152;49.190;8.122;2023-11-21T14:14:33;12.70;99.90
30186;DHT22;31152;49.190;8.122;2023-11-21T14:17:01;12.80;99.90
30186;DHT22;31152;49.190;8.122;2023-11-21T14:19:33;12.80;99.90
30186;DHT22;31152;49.190;8.122;2023-11-21T14:22:03;12.80;99.90
30186;DHT22;31152;49.190;8.122;2023-11-21T14:24:31;12.90;99.90
30186;DHT22;31152;49.190;8.122;2023-11-21T14:27:00;12.80;99.90
30186;DHT22;31152;49.190;8.122;2023-11-21T14:29:28;12.90;99.90
30186;DHT22;31152;49.190;8.122;2023-11-21T14:31:56;12.90;99.90
30186;DHT22;31152;49.190;8.122;2023-11-21T14:34:25;12.90;99.90
30186;DHT22;31152;49.190;8.122;2023-11-21T14:36:53;13.00;99.90
30186;DHT22;31152;49.190;8.122;2023-11-21T14:39:32;13.00;99.90
30186;DHT22;31152;49.190;8.122;2023-11-21T14:42:07;13.00;99.90
30186;DHT22;31152;49.190;8.122;2023-11-21T14:44:34;12.90;99.90
30186;DHT22;31152;49.190;8.122;2023-11-21T14:47:05;12.90;99.90
30186;DHT22;31152;49.190;8.122;2023-11-21T14:49:39;12.90;99.90
30186;DHT22;31152;49.190;8.122;2023-11-21T14:52:22;12.80;99.90
30186;DHT22;31152;49.190;8.122;2023-11-21T14:55:03;12.70;99.90
30186;DHT22;31152;49.190;8.122;2023-11-21T14:57:49;12.70;99.90
30186;DHT22;31152;49.190;8.122;2023-11-21T15:00:18;12.70;99.90
30186;DHT22;31152;49.190;8.122;2023-11-21T15:03:18;12.60;99.90
30186;DHT22;31152;49.190;8.122;2023-11-21T15:06:01;12.80;99.90
30186;DHT22;31152;49.190;8.122;2023-11-21T15:08:56;13.20;99.90
30186;DHT22;31152;49.190;8.122;2023-11-21T15:11:35;13.30;99.90
30186;DHT22;31152;49.190;8.122;2023-11-21T15:14:05;13.30;99.90
30186;DHT22;31152;49.190;8.122;2023-11-21T15:16:36;13.20;99.90
30186;DHT22;31152;49.190;8.122;2023-11-21T15:19:12;13.10;99.90
30186;DHT22;31152;49.190;8.122;2023-11-21T15:21:47;13.00;99.90
30186;DHT22;31152;49.190;8.122;2023-11-21T15:24:14;12.90;99.90
30186;DHT22;31152;49.190;8.122;2023-11-21T15:26:41;12.70;99.90
30186;DHT22;31152;49.190;8.122;2023-11-21T15:29:07;12.60;99.90
30186;DHT22;31152;49.190;8.122;2023-11-21T15:31:34;12.40;99.90
30186;DHT22;31152;49.190;8.122;2023-11-21T15:34:02;12.30;99.90
30186;DHT22;31152;49.190;8.122;2023-11-21T15:36:35;12.20;99.90
30186;DHT22;31152;49.190;8.122;2023-11-21T15:39:02;12.10;99.90
30186;DHT22;31152;49.190;8.122;2023-11-21T15:41:28;12.00;99.90
30186;DHT22;31152;49.190;8.122;2023-11-21T15:43:58;11.90;99.90
30186;DHT22;31152;49.190;8.122;2023-11-21T15:46:24;11.80;99.90
30186;DHT22;31152;49.190;8.122;2023-11-21T15:48:53;11.70;99.90
30186;DHT22;31152;49.190;8.122;2023-11-21T15:51:23;11.60;99.90
30186;DHT22;31152;49.190;8.122;2023-11-21T15:53:50;11.50;99.90
30186;DHT22;31152;49.190;8.122;2023-11-21T15:56:22;11.50;99.90
30186;DHT22;31152;49.190;8.122;2023-11-21T15:58:49;11.40;99.90
30186;DHT22;31152;49.190;8.122;2023-11-21T16:01:20;11.30;99.90
30186;DHT22;31152;49.190;8.122;2023-11-21T16:03:48;11.30;99.90
30186;DHT22;31152;49.190;8.122;2023-11-21T16:06:18;11.20;99.90